»·PEaware :: VTE390 KSAN-KLAS

VTE390 :: KSAN-KLAS

FLIGHT INFORMATION

Flight Status: Arrived
Operator: Unknown
More flights by this operator :: More flights under this callsign
Pilot: Andrew J. (13363)
Aircraft: BOMBARDIER BD-100 CHALLENGER 300
(CL30)
More flights by this aircraft type
Origin: KSAN San Diego Intl-Lindbergh
United States
Destination: KLAS McCarran Intl
United States
More flights between these airports :: More routes between these airports
Route: PADRZ2 CHKNN SEBBY YELAH/N0474F410 MISEN KEPEC6
File this flight plan on PilotEdge
Remarks:
Altitude:
(Current/Filed)
43,000ft
Speed:
(Current/Filed)
469kts
Departed: 25-Nov-19 03:48 PM
Arrived: 25-Nov-19 04:38 PM
Distance/Time
Traveled:
226nm/0:50
Distance/Time
To Go:
Arrived

Flight Plot

Page will automatically refresh every two minutes.

Flight plan parsing failed; only flown route is shown


Map Options




Map Legend


Flown Route
Filed Route
Departure Airport
Arrival Airport
Navaid (VOR, NDB)
Fix

Horizontal Profiles

Position Reports

Time Latitude Longitude Heading Altitude Ground
Speed
25-Nov-19 15:31 32.732656 -117.176574 193 31ft 0kts
25-Nov-19 15:32 32.732720 -117.176555 193 30ft 0kts
25-Nov-19 15:33 32.732759 -117.176544 193 30ft 0kts
25-Nov-19 15:34 32.732821 -117.176525 193 30ft 0kts
25-Nov-19 15:35 32.732821 -117.176526 193 30ft 0kts
25-Nov-19 15:36 32.732707 -117.176559 193 30ft 0kts
25-Nov-19 15:37 32.731936 -117.176675 154 29ft 14kts
25-Nov-19 15:38 32.731212 -117.175643 142 29ft 0kts
25-Nov-19 15:39 32.731127 -117.175573 146 29ft 0kts
25-Nov-19 15:43 32.732459 -117.176632 194 32ft 0kts
25-Nov-19 15:44 32.730860 -117.175348 121 28ft 0kts
25-Nov-19 15:45 32.730859 -117.175346 121 28ft 0kts
25-Nov-19 15:45 32.730850 -117.175333 131 28ft 1kts
25-Nov-19 15:47 32.730082 -117.175334 285 26ft 1kts
25-Nov-19 15:48 32.745312 -117.221525 302 1813ft 247kts
25-Nov-19 15:49 32.783345 -117.289085 303 8012ft 253kts
25-Nov-19 15:50 32.825404 -117.358417 312 13054ft 274kts
25-Nov-19 15:50 32.866622 -117.422095 310 16019ft 313kts
25-Nov-19 15:52 32.929088 -117.519181 308 20629ft 326kts
25-Nov-19 15:53 32.984936 -117.606290 307 23885ft 338kts
25-Nov-19 15:53 33.032870 -117.681203 306 26369ft 344kts
25-Nov-19 15:54 33.099010 -117.764220 317 28984ft 352kts
25-Nov-19 15:55 33.172687 -117.839959 317 31603ft 349kts
25-Nov-19 15:56 33.246783 -117.913108 315 34022ft 348kts
25-Nov-19 15:58 33.333795 -117.998275 315 36534ft 344kts
25-Nov-19 15:58 33.395325 -118.058559 316 38029ft 344kts
25-Nov-19 15:59 33.463295 -118.125269 316 39433ft 344kts
25-Nov-19 16:00 33.537302 -118.198058 315 40640ft 348kts
25-Nov-19 16:01 33.621127 -118.259707 327 41606ft 362kts
25-Nov-19 16:02 33.718153 -118.296838 351 42568ft 389kts
25-Nov-19 16:03 33.823814 -118.243831 32 42885ft 457kts
25-Nov-19 16:04 33.897989 -118.109631 50 42882ft 497kts
25-Nov-19 16:05 33.975975 -117.970653 46 42888ft 506kts
25-Nov-19 16:06 34.057615 -117.831495 46 42904ft 512kts
25-Nov-19 16:07 34.142998 -117.694791 39 42909ft 506kts
25-Nov-19 16:08 34.234353 -117.564925 41 42890ft 508kts
25-Nov-19 16:09 34.323001 -117.435023 41 43418ft 489kts
25-Nov-19 16:10 34.408830 -117.308601 42 41590ft 485kts
25-Nov-19 16:11 34.493934 -117.182613 42 39597ft 483kts
25-Nov-19 16:12 34.580512 -117.054188 43 37430ft 506kts
25-Nov-19 16:13 34.671893 -116.918092 44 35155ft 532kts
25-Nov-19 16:14 34.766258 -116.776620 46 32885ft 545kts
25-Nov-19 16:15 34.861822 -116.641700 34 30466ft 506kts
25-Nov-19 16:16 34.967884 -116.534547 29 27611ft 480kts
25-Nov-19 16:17 35.067615 -116.437281 27 24545ft 435kts
25-Nov-19 16:18 35.152054 -116.340315 34 22544ft 405kts
25-Nov-19 16:19 35.234252 -116.238448 37 20609ft 437kts
25-Nov-19 16:20 35.314115 -116.137982 37 18683ft 423kts
25-Nov-19 16:21 35.394603 -116.036485 37 16811ft 413kts
25-Nov-19 16:22 35.474569 -115.935272 38 15313ft 403kts
25-Nov-19 16:23 35.549965 -115.839467 38 13857ft 362kts
25-Nov-19 16:24 35.613469 -115.758570 36 12980ft 300kts
25-Nov-19 16:25 35.669535 -115.687315 36 12965ft 295kts
25-Nov-19 16:26 35.727823 -115.612885 37 13003ft 306kts
25-Nov-19 16:27 35.754352 -115.505759 71 11131ft 330kts
25-Nov-19 16:28 35.772162 -115.400656 71 9429ft 306kts
25-Nov-19 16:29 35.805689 -115.320922 29 7869ft 232kts
25-Nov-19 16:30 35.860034 -115.286528 11 7012ft 218kts
25-Nov-19 16:31 35.917081 -115.260773 17 6049ft 211kts
25-Nov-19 16:32 35.964195 -115.233526 16 4900ft 157kts
25-Nov-19 16:33 36.003883 -115.210909 16 3937ft 128kts
25-Nov-19 16:34 36.033004 -115.194507 16 3248ft 122kts
25-Nov-19 16:35 36.058455 -115.179860 13 2709ft 123kts
25-Nov-19 16:36 36.085349 -115.164686 24 2117ft 72kts
25-Nov-19 16:37 36.095620 -115.158745 24 2116ft 20kts
25-Nov-19 16:38 36.099599 -115.158513 253 2116ft 11kts
25-Nov-19 16:39 36.098070 -115.160675 315 2116ft 12kts
25-Nov-19 16:40 36.099725 -115.159545 114 2116ft 0kts
25-Nov-19 16:41 36.099709 -115.159502 114 2116ft 0kts
25-Nov-19 16:42 36.099709 -115.159502 114 2116ft 0kts
25-Nov-19 16:43 36.099709 -115.159502 114 2116ft 0kts
25-Nov-19 16:44 36.099709 -115.159502 114 2116ft 0kts
25-Nov-19 16:45 36.099709 -115.159502 114 2116ft 0kts

Navigation Log

Ident Type
Flight plan parsing failed, navigation log unavailable